Time;durP1;ratioP1;P1;durP2;ratioP2;P2;SDS_P1;SDS_P2;PMS_P1;PMS_P2;Temp;Humidity;BMP_temperature;BMP_pressure;BME280_temperature;BME280_humidity;BME280_pressure;Samples;Min_cycle;Max_cycle;Signal;HPM_P1;HPM_P2
2022/05/19 00:01:01;;;;;;;;;;;15.40;58.90;;;;;;4966413;28;87787;-47
2022/05/19 00:03:30;;;;;;;;;;;15.40;58.80;;;;;;4969011;28;87083;-48
2022/05/19 00:05:58;;;;;;;;;;;15.30;58.80;;;;;;4966104;28;87769;-47
2022/05/19 00:08:24;;;;;;;;;;;15.30;58.80;;;;;;4965428;28;87716;-48
2022/05/19 00:10:50;;;;;;;;;;;15.30;58.80;;;;;;4966391;28;88261;-47
2022/05/19 00:13:15;;;;;;;;;;;15.30;58.80;;;;;;4965794;28;88376;-48
2022/05/19 00:15:41;;;;;;;;;;;15.30;58.80;;;;;;4966036;28;86839;-46
2022/05/19 00:18:07;;;;;;;;;;;15.30;58.60;;;;;;4965930;28;87896;-47
2022/05/19 00:20:32;;;;;;;;;;;15.20;58.70;;;;;;4965710;28;88738;-47
2022/05/19 00:22:59;;;;;;;;;;;15.20;58.70;;;;;;4966062;28;86827;-48
2022/05/19 00:25:25;;;;;;;;;;;15.20;58.70;;;;;;4968987;28;88355;-49
2022/05/19 00:27:51;;;;;;;;;;;15.20;58.60;;;;;;4966104;28;86866;-47
2022/05/19 00:30:17;;;;;;;;;;;15.20;58.70;;;;;;4966349;28;86874;-47
2022/05/19 00:32:42;;;;;;;;;;;15.20;58.60;;;;;;4964915;28;89885;-47
2022/05/19 00:35:08;;;;;;;;;;;15.20;58.60;;;;;;4966175;28;87142;-48
2022/05/19 00:37:33;;;;;;;;;;;15.10;58.70;;;;;;4965992;28;86855;-48
2022/05/19 00:39:59;;;;;;;;;;;15.10;58.70;;;;;;4965406;28;88568;-49
2022/05/19 00:42:43;;;;;;;;;;;15.10;58.70;;;;;;4966176;28;86917;-47
2022/05/19 00:45:10;;;;;;;;;;;15.10;58.70;;;;;;4966190;28;86997;-47
2022/05/19 00:47:44;;;;;;;;;;;15.00;58.70;;;;;;4968319;28;88457;-47
2022/05/19 00:50:16;;;;;;;;;;;15.00;58.60;;;;;;4965751;28;87148;-47
2022/05/19 00:52:43;;;;;;;;;;;15.00;58.50;;;;;;4968697;28;87059;-46
2022/05/19 00:55:14;;;;;;;;;;;15.10;58.40;;;;;;4968370;28;87034;-47
2022/05/19 00:57:45;;;;;;;;;;;15.00;58.30;;;;;;4968325;28;87870;-47
2022/05/19 01:00:12;;;;;;;;;;;15.00;58.40;;;;;;4968720;28;88381;-47
2022/05/19 01:02:44;;;;;;;;;;;15.00;58.30;;;;;;4968832;28;86861;-46
2022/05/19 01:05:30;;;;;;;;;;;15.00;58.40;;;;;;4968832;28;87921;-47
2022/05/19 01:08:20;;;;;;;;;;;15.00;58.30;;;;;;4968213;28;89004;-47
2022/05/19 01:10:46;;;;;;;;;;;15.00;58.30;;;;;;4971824;28;86828;-47
2022/05/19 01:13:12;;;;;;;;;;;14.90;58.30;;;;;;4968406;28;87663;-47
2022/05/19 01:15:41;;;;;;;;;;;14.90;58.30;;;;;;4969333;28;86477;-47
2022/05/19 01:18:08;;;;;;;;;;;14.90;58.30;;;;;;4968780;28;87034;-46
2022/05/19 01:20:34;;;;;;;;;;;14.90;58.10;;;;;;4968344;28;87753;-47
2022/05/19 01:23:19;;;;;;;;;;;14.80;58.20;;;;;;4968017;28;87818;-46
2022/05/19 01:26:03;;;;;;;;;;;14.90;58.30;;;;;;4968778;28;87892;-46
2022/05/19 01:28:29;;;;;;;;;;;14.80;58.10;;;;;;4968243;28;87673;-47
2022/05/19 01:30:55;;;;;;;;;;;14.80;58.20;;;;;;4971883;28;86893;-47
2022/05/19 01:33:22;;;;;;;;;;;14.80;58.20;;;;;;4968098;28;88486;-47
2022/05/19 01:35:47;;;;;;;;;;;14.80;58.30;;;;;;4968658;28;86872;-47
2022/05/19 01:38:17;;;;;;;;;;;14.80;58.90;;;;;;4968422;28;88068;-46
2022/05/19 01:41:01;;;;;;;;;;;14.80;58.20;;;;;;4968604;28;87367;-47
2022/05/19 01:43:54;;;;;;;;;;;14.70;58.30;;;;;;4968262;28;86984;-47
2022/05/19 01:46:20;;;;;;;;;;;14.70;58.30;;;;;;4968342;28;87046;-47
2022/05/19 01:49:07;;;;;;;;;;;14.70;58.20;;;;;;4967157;28;87819;-47
2022/05/19 01:51:39;;;;;;;;;;;14.70;58.30;;;;;;4968154;28;86916;-47
2022/05/19 01:54:13;;;;;;;;;;;14.70;58.10;;;;;;4971020;28;87024;-47
2022/05/19 01:56:39;;;;;;;;;;;14.60;58.20;;;;;;4968398;28;86874;-47
2022/05/19 01:59:23;;;;;;;;;;;14.60;58.20;;;;;;4967983;28;87921;-47
2022/05/19 02:02:13;;;;;;;;;;;14.60;58.20;;;;;;4966976;28;88794;-47
2022/05/19 02:04:54;;;;;;;;;;;14.60;58.20;;;;;;4959783;28;86849;-46
2022/05/19 02:07:20;;;;;;;;;;;14.50;58.10;;;;;;4968473;28;87024;-46
2022/05/19 02:09:52;;;;;;;;;;;14.50;58.20;;;;;;4966459;28;87824;-48
2022/05/19 02:12:18;;;;;;;;;;;14.50;58.20;;;;;;4967000;28;86921;-47
2022/05/19 02:14:47;;;;;;;;;;;14.50;58.00;;;;;;4967571;28;87788;-47
2022/05/19 02:17:16;;;;;;;;;;;14.50;58.00;;;;;;4970276;28;88503;-47
2022/05/19 02:19:46;;;;;;;;;;;14.50;58.00;;;;;;4967732;28;87978;-47
2022/05/19 02:22:14;;;;;;;;;;;14.50;58.00;;;;;;4967415;28;88241;-46
2022/05/19 02:24:44;;;;;;;;;;;14.50;58.00;;;;;;4967677;28;86974;-46
2022/05/19 02:27:39;;;;;;;;;;;14.50;58.00;;;;;;4967731;28;87122;-47
2022/05/19 02:30:06;;;;;;;;;;;14.40;57.90;;;;;;4953891;28;88646;-47
2022/05/19 02:32:32;;;;;;;;;;;14.40;58.10;;;;;;4968118;28;86249;-47
2022/05/19 02:34:58;;;;;;;;;;;14.40;58.10;;;;;;4967931;28;87224;-47
2022/05/19 02:37:24;;;;;;;;;;;14.30;58.00;;;;;;4967399;28;87578;-46
2022/05/19 02:39:49;;;;;;;;;;;14.40;58.00;;;;;;4969736;28;88409;-46
2022/05/19 02:42:15;;;;;;;;;;;14.30;57.90;;;;;;4967194;28;88468;-47
2022/05/19 02:44:41;;;;;;;;;;;14.30;57.80;;;;;;4966741;28;87189;-46
2022/05/19 02:47:06;;;;;;;;;;;14.30;57.80;;;;;;4967436;28;87133;-46
2022/05/19 02:49:32;;;;;;;;;;;14.30;57.80;;;;;;4966783;28;86874;-46
2022/05/19 02:51:57;;;;;;;;;;;14.30;57.90;;;;;;4967202;28;86896;-47
2022/05/19 02:54:23;;;;;;;;;;;14.20;58.00;;;;;;4967274;28;88052;-47
2022/05/19 02:56:49;;;;;;;;;;;14.20;57.90;;;;;;4967362;28;87720;-46
2022/05/19 02:59:15;;;;;;;;;;;14.20;57.90;;;;;;4967154;28;86817;-46
2022/05/19 03:01:40;;;;;;;;;;;14.20;58.00;;;;;;4970016;28;86838;-47
2022/05/19 03:04:07;;;;;;;;;;;14.20;57.80;;;;;;4966842;28;87907;-47
2022/05/19 03:06:32;;;;;;;;;;;14.10;57.90;;;;;;4967038;28;88940;-47
2022/05/19 03:08:58;;;;;;;;;;;14.10;58.00;;;;;;4966693;28;88640;-47
2022/05/19 03:11:24;;;;;;;;;;;14.10;57.90;;;;;;4967032;28;87009;-46
2022/05/19 03:13:49;;;;;;;;;;;14.10;57.80;;;;;;4966333;28;86823;-48
2022/05/19 03:16:15;;;;;;;;;;;14.10;57.70;;;;;;4966635;28;87559;-47
2022/05/19 03:18:41;;;;;;;;;;;14.10;57.90;;;;;;4967153;28;86860;-46
2022/05/19 03:21:07;;;;;;;;;;;14.00;57.80;;;;;;4969904;28;88135;-46
2022/05/19 03:23:33;;;;;;;;;;;14.00;57.80;;;;;;4967141;28;86848;-46
2022/05/19 03:25:58;;;;;;;;;;;14.00;57.80;;;;;;4966826;28;87062;-48
2022/05/19 03:28:24;;;;;;;;;;;14.00;57.80;;;;;;4965768;28;89595;-46
2022/05/19 03:30:49;;;;;;;;;;;13.90;57.90;;;;;;4967035;28;86845;-46
2022/05/19 03:33:15;;;;;;;;;;;13.90;57.90;;;;;;4966992;28;87093;-46
2022/05/19 03:35:42;;;;;;;;;;;13.90;57.80;;;;;;4966617;28;86862;-47
2022/05/19 03:38:08;;;;;;;;;;;13.90;57.80;;;;;;4966614;28;86894;-48
2022/05/19 03:40:33;;;;;;;;;;;13.90;57.80;;;;;;4966680;28;88271;-46
2022/05/19 03:42:59;;;;;;;;;;;13.80;57.90;;;;;;4969483;28;87335;-47
2022/05/19 03:45:25;;;;;;;;;;;13.80;57.90;;;;;;4967501;28;86562;-47
2022/05/19 03:47:51;;;;;;;;;;;13.80;57.90;;;;;;4966211;28;88590;-48
2022/05/19 03:50:16;;;;;;;;;;;13.80;57.80;;;;;;4966366;28;86882;-47
2022/05/19 03:52:42;;;;;;;;;;;13.80;57.80;;;;;;4965953;28;88053;-46
2022/05/19 03:55:10;;;;;;;;;;;13.80;57.80;;;;;;4966326;28;87231;-47
2022/05/19 03:57:36;;;;;;;;;;;13.80;57.90;;;;;;4966693;28;87062;-47
2022/05/19 04:00:03;;;;;;;;;;;13.70;57.90;;;;;;4966645;28;86814;-46
2022/05/19 04:02:29;;;;;;;;;;;13.70;58.00;;;;;;4965993;28;88606;-46
2022/05/19 04:04:54;;;;;;;;;;;13.70;58.10;;;;;;4969476;28;86895;-47
2022/05/19 04:07:20;;;;;;;;;;;13.70;58.10;;;;;;4965969;28;88668;-47
2022/05/19 04:09:46;;;;;;;;;;;13.70;58.00;;;;;;4966857;28;86450;-46
2022/05/19 04:12:11;;;;;;;;;;;13.60;58.10;;;;;;4966284;28;86938;-47
2022/05/19 04:14:37;;;;;;;;;;;13.60;58.20;;;;;;4966187;28;86869;-48
2022/05/19 04:17:03;;;;;;;;;;;13.60;58.20;;;;;;4965523;28;87842;-46
2022/05/19 04:19:28;;;;;;;;;;;13.50;58.30;;;;;;4966028;28;89161;-47
2022/05/19 04:21:54;;;;;;;;;;;13.50;58.40;;;;;;4965820;28;88420;-46
2022/05/19 04:24:20;;;;;;;;;;;13.50;58.30;;;;;;4966048;28;86877;-46
2022/05/19 04:26:45;;;;;;;;;;;13.50;58.40;;;;;;4971896;28;87042;-50
2022/05/19 04:29:11;;;;;;;;;;;13.50;58.30;;;;;;4969512;28;87174;-47
2022/05/19 04:31:36;;;;;;;;;;;13.50;58.20;;;;;;4969363;28;88068;-47
2022/05/19 04:34:05;;;;;;;;;;;13.50;58.20;;;;;;4969523;28;88088;-49
2022/05/19 04:36:31;;;;;;;;;;;13.50;58.20;;;;;;4969340;28;86812;-47
2022/05/19 04:38:56;;;;;;;;;;;13.40;58.40;;;;;;4969474;28;87022;-48
2022/05/19 04:41:22;;;;;;;;;;;13.50;58.40;;;;;;4968336;28;89637;-47
2022/05/19 04:43:48;;;;;;;;;;;13.50;58.20;;;;;;4969298;28;86929;-47
2022/05/19 04:46:13;;;;;;;;;;;13.50;58.30;;;;;;4968969;28;87835;-46
2022/05/19 04:48:39;;;;;;;;;;;13.40;58.30;;;;;;4971196;28;87677;-47
2022/05/19 04:51:04;;;;;;;;;;;13.40;58.40;;;;;;4968574;28;87916;-46
2022/05/19 04:53:30;;;;;;;;;;;13.40;58.50;;;;;;4967901;28;87557;-48
2022/05/19 04:55:56;;;;;;;;;;;13.40;58.50;;;;;;4968774;28;86915;-47
2022/05/19 04:58:21;;;;;;;;;;;13.40;58.40;;;;;;4969162;28;86171;-47
2022/05/19 05:00:48;;;;;;;;;;;13.40;58.50;;;;;;4968305;28;88614;-47
2022/05/19 05:03:13;;;;;;;;;;;13.40;58.40;;;;;;4968321;28;86940;-46
2022/05/19 05:05:40;;;;;;;;;;;13.40;58.60;;;;;;4967934;28;88079;-47
2022/05/19 05:08:05;;;;;;;;;;;13.40;58.80;;;;;;4968093;28;88653;-46
2022/05/19 05:10:31;;;;;;;;;;;13.40;58.70;;;;;;4971496;28;86874;-46
2022/05/19 05:12:57;;;;;;;;;;;13.50;58.60;;;;;;4967843;28;87674;-46
2022/05/19 05:15:22;;;;;;;;;;;13.50;58.60;;;;;;4968249;28;86894;-46
2022/05/19 05:17:48;;;;;;;;;;;13.40;58.60;;;;;;4968125;28;88533;-47
2022/05/19 05:20:14;;;;;;;;;;;13.50;58.60;;;;;;4968039;28;86875;-46
2022/05/19 05:22:39;;;;;;;;;;;13.50;58.70;;;;;;4968742;28;86149;-48
2022/05/19 05:25:07;;;;;;;;;;;13.50;58.60;;;;;;4968196;28;87548;-46
2022/05/19 05:27:32;;;;;;;;;;;13.50;58.50;;;;;;4968027;28;87278;-46
2022/05/19 05:29:58;;;;;;;;;;;13.50;58.70;;;;;;4970340;28;87835;-46
2022/05/19 05:32:23;;;;;;;;;;;13.50;58.60;;;;;;4967635;28;88564;-47
2022/05/19 05:34:49;;;;;;;;;;;13.50;58.60;;;;;;4968197;28;86769;-46
2022/05/19 05:37:15;;;;;;;;;;;13.50;58.70;;;;;;4967312;28;87090;-47
2022/05/19 05:39:40;;;;;;;;;;;13.50;58.90;;;;;;4967632;28;88610;-46
2022/05/19 05:42:06;;;;;;;;;;;13.60;58.70;;;;;;4968002;28;86832;-47
2022/05/19 05:44:31;;;;;;;;;;;13.50;58.80;;;;;;4967890;28;88196;-48
2022/05/19 05:46:57;;;;;;;;;;;13.50;58.90;;;;;;4968420;28;86764;-46
2022/05/19 05:49:23;;;;;;;;;;;13.50;58.90;;;;;;4967348;28;86973;-46
2022/05/19 05:51:48;;;;;;;;;;;13.50;59.10;;;;;;4970239;28;87182;-47
2022/05/19 05:54:14;;;;;;;;;;;13.50;59.00;;;;;;4967120;28;87832;-48
2022/05/19 05:56:40;;;;;;;;;;;13.50;59.00;;;;;;4967534;28;88911;-47
2022/05/19 05:59:05;;;;;;;;;;;13.50;59.40;;;;;;4967304;28;88487;-46
2022/05/19 06:01:31;;;;;;;;;;;13.50;59.20;;;;;;4967546;28;86942;-46
2022/05/19 06:03:57;;;;;;;;;;;13.50;59.30;;;;;;4967740;28;86943;-47
2022/05/19 06:06:23;;;;;;;;;;;13.50;59.10;;;;;;4967178;28;87599;-46
2022/05/19 06:08:49;;;;;;;;;;;13.60;59.00;;;;;;4967475;28;87253;-46
2022/05/19 06:11:15;;;;;;;;;;;13.60;59.10;;;;;;4968042;28;88100;-48
2022/05/19 06:13:41;;;;;;;;;;;13.50;59.30;;;;;;4969881;28;88504;-46
2022/05/19 06:16:06;;;;;;;;;;;13.50;59.60;;;;;;4967361;28;87933;-47
2022/05/19 06:18:32;;;;;;;;;;;13.40;59.80;;;;;;4966335;28;88581;-46
2022/05/19 06:20:58;;;;;;;;;;;13.40;60.00;;;;;;4967622;28;86900;-46
2022/05/19 06:23:23;;;;;;;;;;;13.30;60.40;;;;;;4967342;28;88076;-46
2022/05/19 06:25:49;;;;;;;;;;;13.30;60.10;;;;;;4966923;28;88557;-46
2022/05/19 06:28:14;;;;;;;;;;;13.30;60.00;;;;;;4967240;28;87046;-46
2022/05/19 06:30:40;;;;;;;;;;;13.30;60.20;;;;;;4967112;28;87945;-46
2022/05/19 06:33:06;;;;;;;;;;;13.40;59.60;;;;;;4966293;28;86767;-46
2022/05/19 06:35:33;;;;;;;;;;;13.40;59.60;;;;;;4970551;28;86457;-46
2022/05/19 06:37:59;;;;;;;;;;;13.30;60.00;;;;;;4966623;28;87630;-46
2022/05/19 06:40:27;;;;;;;;;;;13.30;60.00;;;;;;4966874;28;86869;-46
2022/05/19 06:42:53;;;;;;;;;;;13.20;60.30;;;;;;4966348;28;88032;-46
2022/05/19 06:45:20;;;;;;;;;;;13.20;60.30;;;;;;4966792;28;86816;-46
2022/05/19 06:47:46;;;;;;;;;;;13.20;60.40;;;;;;4966864;28;86966;-47
2022/05/19 06:50:11;;;;;;;;;;;13.20;60.10;;;;;;4966517;28;86857;-46
2022/05/19 06:52:45;;;;;;;;;;;13.30;60.00;;;;;;4966457;28;87590;-47
2022/05/19 06:55:12;;;;;;;;;;;13.30;60.20;;;;;;4966679;28;86854;-46
2022/05/19 06:57:38;;;;;;;;;;;13.30;60.00;;;;;;4969103;28;87914;-46
2022/05/19 07:00:04;;;;;;;;;;;13.30;59.90;;;;;;4967416;28;86151;-46
2022/05/19 07:02:30;;;;;;;;;;;13.30;59.90;;;;;;4966577;28;86935;-46
2022/05/19 07:04:56;;;;;;;;;;;13.30;59.90;;;;;;4966566;28;87729;-46
2022/05/19 07:07:21;;;;;;;;;;;13.30;59.70;;;;;;4965416;28;88150;-46
2022/05/19 07:09:47;;;;;;;;;;;13.30;60.00;;;;;;4966688;28;88447;-46
2022/05/19 07:12:13;;;;;;;;;;;13.30;60.20;;;;;;4966060;28;88586;-47
2022/05/19 07:14:39;;;;;;;;;;;13.30;60.10;;;;;;4966568;28;87157;-46
2022/05/19 07:17:05;;;;;;;;;;;13.20;60.10;;;;;;4966821;28;87045;-46
2022/05/19 07:22:17;;;;;;;;;;;13.30;59.90;;;;;;4963604;28;86882;-46
2022/05/19 07:24:43;;;;;;;;;;;13.20;60.00;;;;;;4965768;28;86812;-46
2022/05/19 07:27:09;;;;;;;;;;;13.20;60.20;;;;;;4966590;28;87212;-46
2022/05/19 07:29:36;;;;;;;;;;;13.30;60.00;;;;;;4966714;28;87173;-46
2022/05/19 07:32:02;;;;;;;;;;;13.30;60.30;;;;;;4965479;28;88507;-46
2022/05/19 07:34:29;;;;;;;;;;;13.30;59.90;;;;;;4966214;28;86894;-46
2022/05/19 07:36:55;;;;;;;;;;;13.30;60.20;;;;;;4966548;28;87174;-46
2022/05/19 07:39:21;;;;;;;;;;;13.30;59.90;;;;;;4968756;28;87594;-46
2022/05/19 07:41:47;;;;;;;;;;;13.30;60.00;;;;;;4965437;28;87011;-46
2022/05/19 07:44:13;;;;;;;;;;;13.30;60.10;;;;;;4965808;28;87468;-46
2022/05/19 07:46:39;;;;;;;;;;;13.30;60.00;;;;;;4966273;28;86858;-46
2022/05/19 07:49:05;;;;;;;;;;;13.30;60.00;;;;;;4966129;28;88046;-46
2022/05/19 07:51:36;;;;;;;;;;;13.30;60.50;;;;;;4965406;28;88682;-46
2022/05/19 07:54:06;;;;;;;;;;;13.40;60.10;;;;;;4965798;28;86917;-46
2022/05/19 07:56:31;;;;;;;;;;;13.40;60.00;;;;;;4965391;28;87851;-46
2022/05/19 07:58:57;;;;;;;;;;;13.30;60.20;;;;;;4965494;28;88426;-47
2022/05/19 08:01:23;;;;;;;;;;;13.30;59.90;;;;;;4971636;28;86927;-46
2022/05/19 08:03:48;;;;;;;;;;;13.40;59.90;;;;;;4969341;28;87936;-47
2022/05/19 08:06:14;;;;;;;;;;;13.40;60.00;;;;;;4969551;28;86902;-46
2022/05/19 08:08:40;;;;;;;;;;;13.30;59.80;;;;;;4969261;28;87661;-46
2022/05/19 08:11:06;;;;;;;;;;;13.40;60.00;;;;;;4968958;28;87862;-46
2022/05/19 08:16:16;;;;;;;;;;;13.40;59.90;;;;;;4969589;28;86889;-46
2022/05/19 08:18:42;;;;;;;;;;;13.30;59.90;;;;;;4968632;28;88410;-46
2022/05/19 08:21:09;;;;;;;;;;;13.40;59.90;;;;;;4968712;28;88285;-45
2022/05/19 08:23:36;;;;;;;;;;;13.40;59.80;;;;;;4971425;28;89130;-46
2022/05/19 08:26:02;;;;;;;;;;;13.40;59.70;;;;;;4969285;28;86905;-46
2022/05/19 08:28:30;;;;;;;;;;;13.40;59.90;;;;;;4969439;28;86869;-46
2022/05/19 08:31:07;;;;;;;;;;;13.40;59.60;;;;;;4968602;28;87706;-46
2022/05/19 08:33:33;;;;;;;;;;;13.40;59.70;;;;;;4969161;28;87009;-45
2022/05/19 08:35:59;;;;;;;;;;;13.40;59.70;;;;;;4969044;28;87042;-45
2022/05/19 08:38:24;;;;;;;;;;;13.40;59.50;;;;;;4969157;28;87482;-46
2022/05/19 08:41:16;;;;;;;;;;;13.40;59.20;;;;;;4969132;28;87071;-46
2022/05/19 08:43:48;;;;;;;;;;;13.50;59.20;;;;;;4944626;28;87259;-46
2022/05/19 08:46:18;;;;;;;;;;;13.40;59.20;;;;;;4971154;28;88628;-47
2022/05/19 08:48:44;;;;;;;;;;;13.50;59.30;;;;;;4968451;28;88880;-46
2022/05/19 08:51:12;;;;;;;;;;;13.40;59.30;;;;;;4968457;28;88478;-45
2022/05/19 08:53:39;;;;;;;;;;;13.40;59.20;;;;;;4968655;28;86650;-46
2022/05/19 08:56:17;;;;;;;;;;;13.50;59.20;;;;;;4968820;28;88267;-46
2022/05/19 08:58:46;;;;;;;;;;;13.50;58.90;;;;;;4968118;28;87564;-46
2022/05/19 09:01:21;;;;;;;;;;;13.50;58.80;;;;;;4968485;28;86926;-46
2022/05/19 09:03:50;;;;;;;;;;;13.50;58.90;;;;;;4969026;28;87219;-46
2022/05/19 09:06:34;;;;;;;;;;;13.50;58.90;;;;;;4968357;28;87452;-46
2022/05/19 09:09:05;;;;;;;;;;;13.50;58.90;;;;;;4971621;28;87292;-46
2022/05/19 09:11:40;;;;;;;;;;;13.50;58.80;;;;;;4966221;28;89628;-45
2022/05/19 09:14:17;;;;;;;;;;;13.60;58.70;;;;;;4968265;28;86836;-46
2022/05/19 09:16:43;;;;;;;;;;;13.50;58.50;;;;;;4968366;28;87996;-46
2022/05/19 09:19:11;;;;;;;;;;;13.60;58.60;;;;;;4967730;28;88646;-46
2022/05/19 09:21:38;;;;;;;;;;;13.60;58.40;;;;;;4968517;28;86846;-46
2022/05/19 09:24:04;;;;;;;;;;;13.60;58.40;;;;;;4968196;28;86986;-46
2022/05/19 09:26:47;;;;;;;;;;;13.60;58.50;;;;;;4967768;28;88643;-46
2022/05/19 09:29:24;;;;;;;;;;;13.60;58.50;;;;;;4968684;28;86328;-46
2022/05/19 09:31:54;;;;;;;;;;;13.60;58.40;;;;;;4970779;28;87293;-46
2022/05/19 09:34:24;;;;;;;;;;;13.60;58.30;;;;;;4968152;28;86935;-46
2022/05/19 09:37:07;;;;;;;;;;;13.60;58.40;;;;;;4967587;28;88099;-46
2022/05/19 09:39:35;;;;;;;;;;;13.70;58.50;;;;;;4967379;28;88666;-46
2022/05/19 09:42:05;;;;;;;;;;;13.70;58.50;;;;;;4967982;28;87025;-46
2022/05/19 09:44:32;;;;;;;;;;;13.70;58.40;;;;;;4967848;28;87155;-46
2022/05/19 09:46:58;;;;;;;;;;;13.70;58.40;;;;;;4967430;28;87902;-46
2022/05/19 09:49:24;;;;;;;;;;;13.70;58.20;;;;;;4967918;28;86901;-46
2022/05/19 09:51:49;;;;;;;;;;;13.70;58.20;;;;;;4970056;28;87251;-46
2022/05/19 09:54:16;;;;;;;;;;;13.80;58.20;;;;;;4968267;28;86159;-46
2022/05/19 09:56:47;;;;;;;;;;;13.80;58.00;;;;;;4968449;28;86927;-45
2022/05/19 09:59:14;;;;;;;;;;;13.80;58.00;;;;;;4967596;28;88392;-46
2022/05/19 10:01:40;;;;;;;;;;;13.80;57.90;;;;;;4967494;28;87815;-46
2022/05/19 10:04:07;;;;;;;;;;;13.80;58.10;;;;;;4968087;28;89322;-46
2022/05/19 10:06:35;;;;;;;;;;;13.80;58.00;;;;;;4967735;28;88500;-46
2022/05/19 10:09:10;;;;;;;;;;;13.80;58.10;;;;;;4968065;28;86903;-46
2022/05/19 10:11:44;;;;;;;;;;;13.90;58.00;;;;;;4968010;28;87968;-46
2022/05/19 10:14:14;;;;;;;;;;;13.90;57.90;;;;;;4970744;28;87525;-46
2022/05/19 10:16:44;;;;;;;;;;;13.90;58.00;;;;;;4967914;28;88018;-46
2022/05/19 10:19:28;;;;;;;;;;;13.90;57.80;;;;;;4968056;28;86828;-46
2022/05/19 10:22:12;;;;;;;;;;;13.90;57.90;;;;;;4967971;28;86795;-45
2022/05/19 10:24:47;;;;;;;;;;;13.90;57.90;;;;;;4967492;28;88081;-46
2022/05/19 10:33:24;;;;;;;;;;;14.00;57.90;;;;;;4968027;28;86866;-46
2022/05/19 10:35:58;;;;;;;;;;;14.00;57.80;;;;;;4967321;28;88332;-46
2022/05/19 10:38:50;;;;;;;;;;;14.00;57.60;;;;;;4970403;28;86844;-46
2022/05/19 10:41:28;;;;;;;;;;;14.00;57.80;;;;;;4943380;28;87704;-46
2022/05/19 10:44:04;;;;;;;;;;;14.00;57.70;;;;;;4967621;28;86882;-46
2022/05/19 10:46:37;;;;;;;;;;;14.00;57.80;;;;;;4968000;28;87846;-46
2022/05/19 10:49:29;;;;;;;;;;;14.10;57.90;;;;;;4966329;28;87755;-46
2022/05/19 10:52:02;;;;;;;;;;;14.10;57.80;;;;;;4943393;28;87272;-47
2022/05/19 10:54:30;;;;;;;;;;;14.10;57.80;;;;;;4966209;28;87795;-46
2022/05/19 10:57:03;;;;;;;;;;;14.10;57.80;;;;;;4967313;28;87232;-47
2022/05/19 10:59:39;;;;;;;;;;;14.20;57.80;;;;;;4966378;28;86967;-47
2022/05/19 11:02:32;;;;;;;;;;;14.20;57.80;;;;;;4969796;28;87840;-46
2022/05/19 11:05:17;;;;;;;;;;;14.20;57.70;;;;;;4967117;28;86975;-47
2022/05/19 11:07:53;;;;;;;;;;;14.20;57.80;;;;;;4967400;28;86840;-46
2022/05/19 11:10:38;;;;;;;;;;;14.20;57.70;;;;;;4966812;28;88358;-46
2022/05/19 11:13:22;;;;;;;;;;;14.30;57.70;;;;;;4967625;28;86087;-46
2022/05/19 11:15:58;;;;;;;;;;;14.30;57.70;;;;;;4967130;28;86844;-46
2022/05/19 11:18:27;;;;;;;;;;;14.30;57.60;;;;;;4966545;28;88819;-46
2022/05/19 11:21:05;;;;;;;;;;;14.30;57.70;;;;;;4966248;28;87995;-47
2022/05/19 11:23:51;;;;;;;;;;;14.30;57.70;;;;;;4966659;28;88776;-46
2022/05/19 11:26:31;;;;;;;;;;;14.30;57.50;;;;;;4969100;28;86852;-47
2022/05/19 11:29:02;;;;;;;;;;;14.40;57.60;;;;;;4966284;28;87832;-46
2022/05/19 11:31:35;;;;;;;;;;;14.40;57.60;;;;;;4965974;28;88624;-46
2022/05/19 11:34:03;;;;;;;;;;;14.40;57.60;;;;;;4965935;28;86773;-46
2022/05/19 11:36:37;;;;;;;;;;;14.40;57.60;;;;;;4965855;28;88173;-46
2022/05/19 11:39:07;;;;;;;;;;;14.50;57.60;;;;;;4966029;28;87035;-46
2022/05/19 11:41:35;;;;;;;;;;;14.50;57.60;;;;;;4965833;28;86891;-46
2022/05/19 11:44:13;;;;;;;;;;;14.50;57.60;;;;;;4966131;28;87961;-46
2022/05/19 11:46:57;;;;;;;;;;;14.50;57.60;;;;;;4964784;28;89553;-47
2022/05/19 11:55:22;;;;;;;;;;;14.60;57.50;;;;;;4963146;28;86911;-46
2022/05/19 11:58:09;;;;;;;;;;;14.60;57.30;;;;;;4966143;28;86930;-46
2022/05/19 12:00:40;;;;;;;;;;;14.70;57.30;;;;;;4964754;28;87609;-47
2022/05/19 12:03:09;;;;;;;;;;;14.70;57.30;;;;;;4965393;28;87011;-46
2022/05/19 12:05:56;;;;;;;;;;;14.70;57.30;;;;;;4966504;28;86139;-46
2022/05/19 12:08:28;;;;;;;;;;;14.70;57.30;;;;;;4965476;28;87668;-46
2022/05/19 12:10:56;;;;;;;;;;;14.70;57.30;;;;;;4968804;28;86952;-47
2022/05/19 12:13:25;;;;;;;;;;;14.70;57.30;;;;;;4947231;28;90099;-46
2022/05/19 12:15:50;;;;;;;;;;;14.70;57.30;;;;;;4965730;28;86948;-47
2022/05/19 12:18:22;;;;;;;;;;;14.80;57.30;;;;;;4965563;28;86993;-46
2022/05/19 12:21:13;;;;;;;;;;;14.80;57.20;;;;;;4965133;28;87638;-46
2022/05/19 12:23:40;;;;;;;;;;;14.80;57.10;;;;;;4965806;28;86891;-47
2022/05/19 12:26:11;;;;;;;;;;;14.80;57.10;;;;;;4965498;28;87924;-46
2022/05/19 12:28:52;;;;;;;;;;;14.90;57.30;;;;;;4965203;28;88623;-46
2022/05/19 12:34:05;;;;;;;;;;;14.90;57.30;;;;;;4968517;28;87175;-46
2022/05/19 12:36:30;;;;;;;;;;;15.00;57.30;;;;;;4965403;28;86915;-47
2022/05/19 12:39:15;;;;;;;;;;;15.00;57.30;;;;;;4965162;28;88186;-46
2022/05/19 12:41:54;;;;;;;;;;;15.00;57.00;;;;;;4965606;28;87228;-46
2022/05/19 12:44:27;;;;;;;;;;;15.00;57.00;;;;;;4965422;28;86852;-46
2022/05/19 12:47:19;;;;;;;;;;;15.00;57.00;;;;;;4967426;28;87892;-46
2022/05/19 12:50:03;;;;;;;;;;;15.10;56.60;;;;;;4965065;28;87424;-47
2022/05/19 12:52:48;;;;;;;;;;;15.10;56.80;;;;;;4968654;28;87257;-46
2022/05/19 12:55:22;;;;;;;;;;;15.10;56.60;;;;;;4968501;28;87894;-46
2022/05/19 12:57:48;;;;;;;;;;;15.20;56.70;;;;;;4971545;28;86864;-47
2022/05/19 13:00:32;;;;;;;;;;;15.20;56.60;;;;;;4968680;28;87076;-47
2022/05/19 13:03:01;;;;;;;;;;;15.20;56.60;;;;;;4950861;28;88527;-46
2022/05/19 13:05:45;;;;;;;;;;;15.20;56.50;;;;;;4967776;28;87852;-47
2022/05/19 13:08:11;;;;;;;;;;;15.30;56.60;;;;;;4968342;28;89008;-46
2022/05/19 13:10:55;;;;;;;;;;;15.30;56.40;;;;;;4968135;28;88814;-46
2022/05/19 13:13:25;;;;;;;;;;;15.30;56.40;;;;;;4968212;28;86897;-47
2022/05/19 13:15:55;;;;;;;;;;;15.40;56.50;;;;;;4968325;28;87062;-46
2022/05/19 13:18:26;;;;;;;;;;;15.40;56.50;;;;;;4967802;28;89044;-46
2022/05/19 13:21:01;;;;;;;;;;;15.40;56.20;;;;;;4971078;28;86812;-46
2022/05/19 13:23:30;;;;;;;;;;;15.40;56.10;;;;;;4968636;28;86073;-46
2022/05/19 13:26:04;;;;;;;;;;;15.50;56.20;;;;;;4968026;28;86898;-46
2022/05/19 13:31:32;;;;;;;;;;;15.50;56.10;;;;;;4964138;28;87786;-48
2022/05/19 13:33:59;;;;;;;;;;;15.50;56.20;;;;;;4968256;28;86860;-46
2022/05/19 13:36:36;;;;;;;;;;;15.60;56.20;;;;;;4968001;28;87978;-47
2022/05/19 13:39:07;;;;;;;;;;;15.60;56.10;;;;;;4967585;28;88424;-47
2022/05/19 13:41:34;;;;;;;;;;;15.60;56.10;;;;;;4967831;28;86892;-46
2022/05/19 13:44:00;;;;;;;;;;;15.60;55.90;;;;;;4970452;28;87954;-46
2022/05/19 13:46:27;;;;;;;;;;;15.60;56.10;;;;;;4967937;28;86815;-46
2022/05/19 13:48:56;;;;;;;;;;;15.70;56.10;;;;;;4967858;28;87952;-47
2022/05/19 13:51:22;;;;;;;;;;;15.70;56.20;;;;;;4967297;28;88484;-46
2022/05/19 13:53:58;;;;;;;;;;;15.70;56.30;;;;;;4967711;28;86855;-46
2022/05/19 13:56:25;;;;;;;;;;;15.80;56.30;;;;;;4967006;28;87891;-47
2022/05/19 13:58:52;;;;;;;;;;;15.70;56.10;;;;;;4966515;28;88798;-47
2022/05/19 14:01:24;;;;;;;;;;;15.70;56.10;;;;;;4967595;28;86864;-46
2022/05/19 14:03:51;;;;;;;;;;;15.80;56.10;;;;;;4969607;28;86809;-46
2022/05/19 14:06:18;;;;;;;;;;;15.80;56.40;;;;;;4967951;28;86893;-47
2022/05/19 14:08:44;;;;;;;;;;;15.80;56.40;;;;;;4967481;28;87934;-46
2022/05/19 14:11:09;;;;;;;;;;;15.90;56.10;;;;;;4967180;28;87627;-47
2022/05/19 14:13:36;;;;;;;;;;;15.90;56.00;;;;;;4950663;28;86581;-46
2022/05/19 14:16:06;;;;;;;;;;;16.00;55.90;;;;;;4967273;28;87039;-46
2022/05/19 14:18:39;;;;;;;;;;;16.00;55.70;;;;;;4966986;28;88686;-46
2022/05/19 14:21:08;;;;;;;;;;;16.00;55.70;;;;;;4966620;28;87753;-46
2022/05/19 14:23:46;;;;;;;;;;;16.00;55.70;;;;;;4967295;28;88802;-47
2022/05/19 14:26:13;;;;;;;;;;;16.10;55.60;;;;;;4969726;28;88594;-46
2022/05/19 14:28:41;;;;;;;;;;;16.10;55.60;;;;;;4967653;28;86853;-47
2022/05/19 14:31:10;;;;;;;;;;;16.10;55.20;;;;;;4967118;28;87727;-48
2022/05/19 14:33:37;;;;;;;;;;;16.10;55.70;;;;;;4967143;28;86875;-46
2022/05/19 14:36:09;;;;;;;;;;;16.20;55.10;;;;;;4967217;28;86833;-46
2022/05/19 14:38:53;;;;;;;;;;;16.10;55.50;;;;;;4967136;28;86832;-47
2022/05/19 14:44:12;;;;;;;;;;;16.20;55.70;;;;;;4963993;28;87317;-47
2022/05/19 14:46:58;;;;;;;;;;;16.20;55.40;;;;;;4965877;28;88282;-46
2022/05/19 14:49:28;;;;;;;;;;;16.20;55.30;;;;;;4968918;28;87201;-46
2022/05/19 14:51:53;;;;;;;;;;;16.20;55.50;;;;;;4966300;28;88352;-47
2022/05/19 14:54:22;;;;;;;;;;;16.30;55.60;;;;;;4966601;28;86868;-46
2022/05/19 14:56:57;;;;;;;;;;;16.30;55.70;;;;;;4967112;28;86901;-46